createdAt,value
2022-08-18T00:01:33.352Z,100.00
2022-08-18T00:04:03.282Z,100.00
2022-08-18T00:06:32.183Z,100.00
2022-08-18T00:09:01.716Z,100.00
2022-08-18T00:11:41.186Z,100.00
2022-08-18T00:14:22.208Z,100.00
2022-08-18T00:16:53.287Z,100.00
2022-08-18T00:19:45.687Z,100.00
2022-08-18T00:22:14.819Z,100.00
2022-08-18T00:24:48.670Z,100.00
2022-08-18T00:27:18.890Z,100.00
2022-08-18T00:29:48.137Z,100.00
2022-08-18T00:32:17.137Z,100.00
2022-08-18T00:34:44.372Z,100.00
2022-08-18T00:37:12.184Z,100.00
2022-08-18T00:39:40.663Z,100.00
2022-08-18T00:42:30.128Z,100.00
2022-08-18T00:45:05.778Z,100.00
2022-08-18T00:47:42.769Z,100.00
2022-08-18T00:50:15.273Z,100.00
2022-08-18T00:52:48.445Z,100.00
2022-08-18T00:55:17.629Z,100.00
2022-08-18T00:57:47.508Z,100.00
2022-08-18T01:00:17.258Z,100.00
2022-08-18T01:02:50.084Z,100.00
2022-08-18T01:05:24.624Z,100.00
2022-08-18T01:07:52.356Z,100.00
2022-08-18T01:10:22.580Z,100.00
2022-08-18T01:12:53.285Z,100.00
2022-08-18T01:15:29.070Z,100.00
2022-08-18T01:17:59.191Z,100.00
2022-08-18T01:20:33.118Z,100.00
2022-08-18T01:23:11.809Z,100.00
2022-08-18T01:25:40.871Z,100.00
2022-08-18T01:28:08.788Z,100.00
2022-08-18T01:30:48.165Z,100.00
2022-08-18T01:33:15.843Z,100.00
2022-08-18T01:35:46.333Z,100.00
2022-08-18T01:38:15.818Z,100.00
2022-08-18T01:41:25.075Z,100.00
2022-08-18T01:43:31.073Z,100.00
2022-08-18T01:45:58.554Z,100.00
2022-08-18T01:48:26.203Z,100.00
2022-08-18T01:50:53.379Z,100.00
2022-08-18T01:53:22.296Z,100.00
2022-08-18T01:55:49.416Z,100.00
2022-08-18T01:58:16.714Z,100.00
2022-08-18T02:00:44.257Z,100.00
2022-08-18T02:03:14.655Z,100.00
2022-08-18T02:05:48.966Z,100.00
2022-08-18T02:08:17.296Z,100.00
2022-08-18T02:10:45.894Z,100.00
2022-08-18T02:13:13.569Z,100.00
2022-08-18T02:15:41.469Z,100.00
2022-08-18T02:18:15.553Z,100.00
2022-08-18T02:21:10.439Z,100.00
2022-08-18T02:23:38.131Z,100.00
2022-08-18T02:26:12.502Z,100.00
2022-08-18T02:28:40.448Z,100.00
2022-08-18T02:31:11.321Z,100.00
2022-08-18T02:33:39.399Z,100.00
2022-08-18T02:36:15.681Z,100.00
2022-08-18T02:38:43.681Z,100.00
2022-08-18T02:41:13.458Z,100.00
2022-08-18T02:43:41.638Z,100.00
2022-08-18T02:46:10.134Z,100.00
2022-08-18T02:48:38.212Z,100.00
2022-08-18T02:51:08.369Z,100.00
2022-08-18T02:53:37.259Z,100.00
2022-08-18T02:56:10.141Z,100.00
2022-08-18T02:58:39.393Z,100.00
2022-08-18T03:01:06.803Z,100.00
2022-08-18T03:03:34.062Z,100.00
2022-08-18T03:06:01.285Z,100.00
2022-08-18T03:08:28.737Z,100.00
2022-08-18T03:10:56.177Z,100.00
2022-08-18T03:13:23.298Z,100.00
2022-08-18T03:15:56.698Z,100.00
2022-08-18T03:18:24.930Z,100.00
2022-08-18T03:20:52.414Z,100.00
2022-08-18T03:23:21.298Z,100.00
2022-08-18T03:25:57.776Z,100.00
2022-08-18T03:28:25.116Z,100.00
2022-08-18T03:30:55.208Z,100.00
2022-08-18T03:33:23.052Z,100.00
2022-08-18T03:35:50.293Z,100.00
2022-08-18T03:38:17.780Z,100.00
2022-08-18T03:40:51.810Z,100.00
2022-08-18T03:43:50.016Z,100.00
2022-08-18T03:46:11.386Z,100.00
2022-08-18T03:48:40.515Z,100.00
2022-08-18T03:51:10.661Z,100.00
2022-08-18T03:53:38.241Z,100.00
2022-08-18T03:56:08.795Z,100.00
2022-08-18T03:58:36.643Z,100.00
2022-08-18T04:01:03.914Z,100.00
2022-08-18T04:03:33.364Z,100.00
2022-08-18T04:06:01.599Z,100.00
2022-08-18T04:08:28.974Z,100.00
2022-08-18T04:10:56.479Z,100.00
2022-08-18T04:13:24.018Z,100.00
2022-08-18T04:15:51.673Z,100.00
2022-08-18T04:18:20.752Z,100.00
2022-08-18T04:20:54.708Z,100.00
2022-08-18T04:23:27.600Z,100.00
2022-08-18T04:25:57.527Z,100.00
2022-08-18T04:28:25.748Z,100.00
2022-08-18T04:30:53.940Z,100.00
2022-08-18T04:33:21.764Z,100.00
2022-08-18T04:35:51.203Z,100.00
2022-08-18T04:38:18.841Z,100.00
2022-08-18T04:40:46.886Z,100.00
2022-08-18T04:43:14.747Z,100.00
2022-08-18T04:45:42.168Z,100.00
2022-08-18T04:48:09.429Z,100.00
2022-08-18T04:50:40.493Z,100.00
2022-08-18T04:53:09.857Z,100.00
2022-08-18T04:55:36.871Z,100.00
2022-08-18T04:58:04.451Z,100.00
2022-08-18T05:00:31.842Z,100.00
2022-08-18T05:02:59.529Z,100.00
2022-08-18T05:05:26.869Z,100.00
2022-08-18T05:07:54.775Z,100.00
2022-08-18T05:10:23.653Z,100.00
2022-08-18T05:12:50.994Z,100.00
2022-08-18T05:15:18.575Z,100.00
2022-08-18T05:17:46.328Z,100.00
2022-08-18T05:20:19.375Z,100.00
2022-08-18T05:22:48.486Z,100.00
2022-08-18T05:25:16.130Z,100.00
2022-08-18T05:27:46.224Z,100.00
2022-08-18T05:30:13.966Z,100.00
2022-08-18T05:32:48.418Z,100.00
2022-08-18T05:35:22.283Z,100.00
2022-08-18T05:38:07.179Z,100.00
2022-08-18T05:40:36.523Z,100.00
2022-08-18T05:43:06.873Z,100.00
2022-08-18T05:45:35.251Z,100.00
2022-08-18T05:48:02.459Z,100.00
2022-08-18T05:50:34.241Z,100.00
2022-08-18T05:53:13.489Z,100.00
2022-08-18T05:55:48.048Z,100.00
2022-08-18T05:58:21.271Z,100.00
2022-08-18T06:00:57.396Z,100.00
2022-08-18T06:03:45.288Z,100.00
2022-08-18T06:06:18.585Z,100.00
2022-08-18T06:08:50.700Z,100.00
2022-08-18T06:11:22.331Z,100.00
2022-08-18T06:13:54.256Z,100.00
2022-08-18T06:16:38.980Z,100.00
2022-08-18T06:19:23.193Z,100.00
2022-08-18T06:21:58.121Z,100.00
2022-08-18T06:24:33.164Z,100.00
2022-08-18T06:27:11.245Z,100.00
2022-08-18T06:29:50.336Z,100.00
2022-08-18T06:32:26.491Z,100.00
2022-08-18T06:35:07.509Z,100.00
2022-08-18T06:37:36.844Z,100.00
2022-08-18T06:40:04.493Z,100.00
2022-08-18T06:42:31.782Z,100.00
2022-08-18T06:45:03.060Z,100.00
2022-08-18T06:47:42.129Z,100.00
2022-08-18T06:50:18.411Z,99.98
2022-08-18T06:52:54.576Z,100.00
2022-08-18T06:55:35.241Z,100.00
2022-08-18T06:58:04.497Z,100.00
2022-08-18T07:00:35.543Z,100.00
2022-08-18T07:03:11.536Z,100.00
2022-08-18T07:05:56.484Z,100.00
2022-08-18T07:08:31.740Z,95.94
2022-08-18T07:11:12.602Z,90.25
2022-08-18T07:13:42.355Z,89.82
2022-08-18T07:16:56.670Z,90.19
2022-08-18T07:19:20.402Z,91.57
2022-08-18T07:22:01.665Z,85.53
2022-08-18T07:24:32.538Z,86.03
2022-08-18T07:27:03.821Z,85.88
2022-08-18T07:29:33.942Z,84.09
2022-08-18T07:32:10.391Z,83.06
2022-08-18T07:34:53.206Z,83.33
2022-08-18T07:37:28.824Z,81.04
2022-08-18T07:40:01.987Z,82.11
2022-08-18T07:42:56.811Z,77.65
2022-08-18T07:45:27.522Z,78.46
2022-08-18T07:48:15.704Z,79.08
2022-08-18T07:51:00.833Z,79.95
2022-08-18T07:53:56.172Z,77.91
2022-08-18T07:56:35.984Z,79.04
2022-08-18T07:59:11.233Z,73.63
2022-08-18T08:01:44.503Z,71.77
2022-08-18T08:04:25.645Z,74.49
2022-08-18T08:07:23.377Z,77.56
2022-08-18T08:10:00.424Z,76.07
2022-08-18T08:12:45.490Z,76.64
2022-08-18T08:15:27.173Z,68.29
2022-08-18T08:18:05.021Z,64.97
2022-08-18T08:20:39.865Z,66.83
2022-08-18T08:23:15.977Z,64.33
2022-08-18T08:25:56.153Z,65.60
2022-08-18T08:28:39.541Z,67.63
2022-08-18T08:31:35.922Z,68.95
2022-08-18T08:34:07.283Z,65.93
2022-08-18T08:36:40.323Z,64.87
2022-08-18T08:39:14.265Z,67.20
2022-08-18T08:41:46.120Z,62.85
2022-08-18T08:44:18.872Z,64.39
2022-08-18T08:46:53.506Z,64.66
2022-08-18T08:49:30.763Z,60.13
2022-08-18T08:52:05.370Z,59.44
2022-08-18T08:54:42.545Z,58.29
2022-08-18T08:57:12.142Z,57.32
2022-08-18T08:59:40.963Z,56.09
2022-08-18T09:02:47.221Z,57.99
2022-08-18T09:05:20.166Z,54.60
2022-08-18T09:08:22.589Z,53.65
2022-08-18T09:11:19.865Z,54.55
2022-08-18T09:14:18.977Z,55.10
2022-08-18T09:17:02.496Z,56.73
2022-08-18T09:20:04.045Z,54.96
2022-08-18T09:22:44.324Z,53.01
2022-08-18T09:25:31.343Z,52.03
2022-08-18T09:28:11.815Z,52.67
2022-08-18T09:30:49.290Z,54.09
2022-08-18T09:33:27.857Z,52.49
2022-08-18T09:36:28.004Z,52.91
2022-08-18T09:39:00.649Z,52.68
2022-08-18T09:41:36.268Z,49.52
2022-08-18T09:44:07.527Z,49.36
2022-08-18T09:47:01.943Z,50.51
2022-08-18T09:49:51.068Z,48.95
2022-08-18T09:52:49.258Z,48.54
2022-08-18T09:56:00.756Z,50.20
2022-08-18T09:58:54.239Z,48.97
2022-08-18T10:01:52.609Z,48.14
2022-08-18T10:04:33.491Z,49.08
2022-08-18T10:07:38.937Z,48.46
2022-08-18T10:11:00.530Z,48.66
2022-08-18T10:13:21.563Z,48.49
2022-08-18T10:16:10.503Z,48.84
2022-08-18T10:19:01.265Z,45.73
2022-08-18T10:21:31.110Z,47.95
2022-08-18T10:24:35.078Z,47.22
2022-08-18T10:27:02.499Z,47.81
2022-08-18T10:29:50.574Z,47.33
2022-08-18T10:32:37.099Z,47.87
2022-08-18T10:35:48.054Z,47.96
2022-08-18T10:38:19.655Z,48.25
2022-08-18T10:40:56.573Z,46.55
2022-08-18T10:46:26.203Z,46.00
2022-08-18T10:49:04.443Z,44.90
2022-08-18T10:52:01.115Z,46.80
2022-08-18T10:54:51.239Z,46.16
2022-08-18T10:57:32.696Z,45.02
2022-08-18T11:00:05.582Z,42.42
2022-08-18T11:02:50.840Z,43.65
2022-08-18T11:05:24.351Z,44.29
2022-08-18T11:08:00.521Z,43.22
2022-08-18T11:10:57.753Z,42.48
2022-08-18T11:13:30.928Z,40.91
2022-08-18T11:16:10.305Z,41.09
2022-08-18T11:18:43.902Z,42.97
2022-08-18T11:21:30.734Z,41.02
2022-08-18T11:24:10.014Z,40.69
2022-08-18T11:26:39.865Z,39.27
2022-08-18T11:29:38.237Z,40.19
2022-08-18T11:32:12.637Z,40.04
2022-08-18T11:34:51.909Z,41.71
2022-08-18T11:37:26.940Z,40.83
2022-08-18T11:39:59.579Z,40.24
2022-08-18T11:42:30.315Z,39.24
2022-08-18T11:45:06.574Z,38.25
2022-08-18T11:47:38.271Z,39.74
2022-08-18T11:50:12.434Z,40.50
2022-08-18T11:52:53.636Z,41.03
2022-08-18T11:55:33.647Z,38.73
2022-08-18T11:58:01.286Z,37.52
2022-08-18T12:00:44.005Z,38.40
2022-08-18T12:03:21.189Z,35.79
2022-08-18T12:05:54.139Z,36.58
2022-08-18T12:08:56.467Z,35.31
2022-08-18T12:11:30.741Z,37.12
2022-08-18T12:14:32.285Z,36.49
2022-08-18T12:16:54.306Z,37.51
2022-08-18T12:19:24.230Z,37.11
2022-08-18T12:21:53.830Z,38.50
2022-08-18T12:24:28.101Z,39.02
2022-08-18T12:27:20.424Z,38.56
2022-08-18T12:29:50.294Z,38.76
2022-08-18T12:32:46.812Z,38.17
2022-08-18T12:35:09.693Z,39.31
2022-08-18T12:40:29.268Z,37.31
2022-08-18T12:42:57.910Z,38.17
2022-08-18T12:45:25.920Z,37.53
2022-08-18T12:47:55.049Z,39.01
2022-08-18T12:50:31.186Z,38.76
2022-08-18T12:53:01.822Z,40.08
2022-08-18T12:55:34.252Z,39.56
2022-08-18T12:58:04.789Z,39.13
2022-08-18T13:00:32.498Z,39.41
2022-08-18T13:03:00.293Z,39.11
2022-08-18T13:05:29.857Z,39.35
2022-08-18T13:08:00.831Z,38.87
2022-08-18T13:10:45.621Z,39.73
2022-08-18T13:13:18.238Z,39.56
2022-08-18T13:15:55.660Z,41.15
2022-08-18T13:18:28.617Z,40.56
2022-08-18T13:20:57.166Z,40.71
2022-08-18T13:23:27.309Z,41.68
2022-08-18T13:25:59.310Z,40.31
2022-08-18T13:28:35.770Z,40.33
2022-08-18T13:31:04.163Z,39.94
2022-08-18T13:33:34.800Z,38.51
2022-08-18T13:36:22.337Z,37.93
2022-08-18T13:38:50.580Z,38.23
2022-08-18T13:41:23.417Z,38.67
2022-08-18T13:43:54.045Z,37.28
2022-08-18T13:46:29.833Z,36.67
2022-08-18T13:48:57.906Z,36.70
2022-08-18T13:51:25.505Z,36.53
2022-08-18T13:54:15.874Z,36.38
2022-08-18T13:56:40.680Z,36.49
2022-08-18T13:59:11.570Z,36.99
2022-08-18T14:01:44.265Z,35.63
2022-08-18T14:04:20.960Z,35.84
2022-08-18T14:06:57.161Z,35.57
2022-08-18T14:09:36.507Z,35.65
2022-08-18T14:12:21.430Z,33.40
2022-08-18T14:14:55.286Z,35.02
2022-08-18T14:17:24.824Z,37.19
2022-08-18T14:19:52.232Z,39.65
2022-08-18T14:22:19.752Z,42.62
2022-08-18T14:24:48.867Z,44.97
2022-08-18T14:27:17.636Z,46.13
2022-08-18T14:29:47.377Z,49.35
2022-08-18T14:32:28.312Z,51.09
2022-08-18T14:35:00.118Z,53.92
2022-08-18T14:37:29.202Z,53.91
2022-08-18T14:39:56.892Z,54.71
2022-08-18T14:42:41.054Z,55.47
2022-08-18T14:45:26.752Z,54.78
2022-08-18T14:48:01.958Z,54.31
2022-08-18T14:50:34.231Z,54.07
2022-08-18T14:53:02.637Z,54.68
2022-08-18T14:55:30.502Z,53.30
2022-08-18T14:57:59.353Z,53.44
2022-08-18T15:00:28.965Z,53.88
2022-08-18T15:02:59.763Z,53.68
2022-08-18T15:05:30.946Z,52.83
2022-08-18T15:07:59.622Z,52.90
2022-08-18T15:10:28.212Z,53.50
2022-08-18T15:12:56.535Z,52.69
2022-08-18T15:15:24.948Z,52.21
2022-08-18T15:17:53.590Z,52.82
2022-08-18T15:20:29.627Z,54.25
2022-08-18T15:23:04.341Z,52.80
2022-08-18T15:25:32.306Z,53.60
2022-08-18T15:28:00.343Z,53.24
2022-08-18T15:30:29.497Z,55.31
2022-08-18T15:32:57.982Z,53.78
2022-08-18T15:35:28.028Z,56.37
2022-08-18T15:37:56.313Z,54.84
2022-08-18T15:40:30.591Z,57.31
2022-08-18T15:43:10.060Z,54.57
2022-08-18T15:45:43.253Z,54.77
2022-08-18T15:48:27.308Z,54.64
2022-08-18T15:50:57.098Z,55.61
2022-08-18T15:53:40.055Z,56.11
2022-08-18T15:56:20.710Z,56.21
2022-08-18T15:58:48.615Z,55.80
2022-08-18T16:01:29.920Z,56.61
2022-08-18T16:03:58.391Z,57.21
2022-08-18T16:06:27.488Z,58.09
2022-08-18T16:08:55.403Z,57.59
2022-08-18T16:11:28.866Z,59.17
2022-08-18T16:13:57.438Z,57.89
2022-08-18T16:16:35.353Z,59.00
2022-08-18T16:19:05.394Z,58.47
2022-08-18T16:21:32.851Z,60.59
2022-08-18T16:24:00.221Z,59.05
2022-08-18T16:26:29.404Z,59.46
2022-08-18T16:28:58.290Z,59.39
2022-08-18T16:31:27.764Z,59.58
2022-08-18T16:33:56.764Z,58.56
2022-08-18T16:36:25.137Z,60.42
2022-08-18T16:38:58.116Z,61.63
2022-08-18T16:41:27.010Z,63.55
2022-08-18T16:43:56.179Z,63.20
2022-08-18T16:46:26.100Z,60.15
2022-08-18T16:48:54.889Z,62.75
2022-08-18T16:51:24.449Z,65.21
2022-08-18T16:53:52.496Z,66.64
2022-08-18T16:56:22.228Z,64.73
2022-08-18T16:58:50.854Z,64.67
2022-08-18T17:01:19.852Z,65.45
2022-08-18T17:03:50.237Z,68.42
2022-08-18T17:06:19.869Z,67.55
2022-08-18T17:08:47.279Z,68.14
2022-08-18T17:11:17.604Z,69.73
2022-08-18T17:13:46.093Z,69.19
2022-08-18T17:16:13.328Z,67.31
2022-08-18T17:18:43.688Z,68.64
2022-08-18T17:21:16.483Z,68.26
2022-08-18T17:23:44.471Z,70.25
2022-08-18T17:26:20.705Z,70.73
2022-08-18T17:28:52.517Z,70.74
2022-08-18T17:31:21.769Z,70.51
2022-08-18T17:33:56.590Z,72.11
2022-08-18T17:36:33.250Z,75.03
2022-08-18T17:39:04.495Z,74.21
2022-08-18T17:41:31.763Z,76.66
2022-08-18T17:44:00.949Z,76.95
2022-08-18T17:46:38.817Z,77.54
2022-08-18T17:49:13.426Z,78.29
2022-08-18T17:51:46.435Z,78.97
2022-08-18T17:54:21.105Z,80.47
2022-08-18T17:56:52.872Z,83.21
2022-08-18T17:59:46.246Z,85.38
2022-08-18T18:02:30.011Z,86.69
2022-08-18T18:05:01.283Z,88.27
2022-08-18T18:07:30.946Z,88.57
2022-08-18T18:10:02.170Z,89.36
2022-08-18T18:12:32.804Z,91.12
2022-08-18T18:17:30.906Z,93.27
2022-08-18T18:20:18.376Z,93.81
2022-08-18T18:22:45.622Z,94.77
2022-08-18T18:25:14.081Z,95.03
2022-08-18T18:27:47.430Z,93.60
2022-08-18T18:30:28.114Z,94.17
2022-08-18T18:32:59.841Z,94.19
2022-08-18T18:35:31.052Z,95.54
2022-08-18T18:38:04.693Z,92.92
2022-08-18T18:40:35.436Z,92.68
2022-08-18T18:43:21.081Z,93.42
2022-08-18T18:46:09.029Z,91.84
2022-08-18T18:48:51.708Z,93.50
2022-08-18T18:51:33.797Z,91.83
2022-08-18T18:54:15.901Z,94.67
2022-08-18T18:56:49.823Z,93.84
2022-08-18T18:59:25.454Z,98.06
2022-08-18T19:02:00.179Z,97.52
2022-08-18T19:04:33.814Z,97.50
2022-08-18T19:07:11.940Z,98.99
2022-08-18T19:09:57.423Z,100.00
2022-08-18T19:12:28.868Z,100.00
2022-08-18T19:15:02.855Z,100.00
2022-08-18T19:17:42.109Z,100.00
2022-08-18T19:20:15.806Z,100.00
2022-08-18T19:22:50.151Z,100.00
2022-08-18T19:25:21.816Z,100.00
2022-08-18T19:27:54.140Z,100.00
2022-08-18T19:30:22.242Z,100.00
2022-08-18T19:32:52.890Z,100.00
2022-08-18T19:35:25.371Z,100.00
2022-08-18T19:38:13.692Z,100.00
2022-08-18T19:40:49.770Z,100.00
2022-08-18T19:43:22.664Z,100.00
2022-08-18T19:46:03.132Z,100.00
2022-08-18T19:48:41.112Z,100.00
2022-08-18T19:51:15.252Z,100.00
2022-08-18T19:54:03.997Z,100.00
2022-08-18T19:56:54.533Z,100.00
2022-08-18T19:59:35.124Z,100.00
2022-08-18T20:02:20.889Z,100.00
2022-08-18T20:05:08.802Z,100.00
2022-08-18T20:08:02.881Z,100.00
2022-08-18T20:10:42.830Z,100.00
2022-08-18T20:13:25.536Z,100.00
2022-08-18T20:16:12.346Z,100.00
2022-08-18T20:18:41.225Z,100.00
2022-08-18T20:21:43.604Z,100.00
2022-08-18T20:24:34.832Z,100.00
2022-08-18T20:27:23.420Z,100.00
2022-08-18T20:30:21.102Z,100.00
2022-08-18T20:33:11.254Z,100.00
2022-08-18T20:35:41.115Z,100.00
2022-08-18T20:38:21.584Z,100.00
2022-08-18T20:40:51.462Z,100.00
2022-08-18T20:43:30.406Z,100.00
2022-08-18T20:46:09.884Z,100.00
2022-08-18T20:48:51.332Z,100.00
2022-08-18T20:51:25.809Z,100.00
2022-08-18T20:54:17.936Z,100.00
2022-08-18T20:56:48.953Z,100.00
2022-08-18T20:59:21.099Z,100.00
2022-08-18T21:01:57.292Z,100.00
2022-08-18T21:04:48.782Z,100.00
2022-08-18T21:07:35.962Z,100.00
2022-08-18T21:10:13.339Z,100.00
2022-08-18T21:12:52.224Z,100.00
2022-08-18T21:15:22.061Z,100.00
2022-08-18T21:17:57.461Z,100.00
2022-08-18T21:20:24.842Z,100.00
2022-08-18T21:23:01.593Z,100.00
2022-08-18T21:25:29.502Z,100.00
2022-08-18T21:27:56.677Z,100.00
2022-08-18T21:30:26.968Z,100.00
2022-08-18T21:32:54.526Z,100.00
2022-08-18T21:35:25.816Z,100.00
2022-08-18T21:37:57.927Z,100.00
2022-08-18T21:40:48.367Z,100.00
2022-08-18T21:43:35.842Z,100.00
2022-08-18T21:46:05.397Z,100.00
2022-08-18T21:48:34.700Z,100.00
2022-08-18T21:51:03.499Z,100.00
2022-08-18T21:53:34.539Z,100.00
2022-08-18T21:56:02.089Z,100.00
2022-08-18T21:58:39.587Z,100.00
2022-08-18T22:01:15.454Z,100.00
2022-08-18T22:03:52.588Z,100.00
2022-08-18T22:06:27.803Z,100.00
2022-08-18T22:08:59.330Z,100.00
2022-08-18T22:11:59.786Z,100.00
2022-08-18T22:14:35.785Z,100.00
2022-08-18T22:17:28.404Z,100.00
2022-08-18T22:19:55.965Z,100.00
2022-08-18T22:22:23.454Z,100.00
2022-08-18T22:24:55.534Z,100.00
2022-08-18T22:27:25.965Z,100.00
2022-08-18T22:29:56.273Z,100.00
2022-08-18T22:32:24.170Z,100.00
2022-08-18T22:34:53.764Z,100.00
2022-08-18T22:37:23.692Z,100.00
2022-08-18T22:39:53.817Z,100.00
2022-08-18T22:42:22.750Z,100.00
2022-08-18T22:44:50.522Z,100.00
2022-08-18T22:47:18.340Z,100.00
2022-08-18T22:49:45.801Z,100.00
2022-08-18T22:52:19.841Z,100.00
2022-08-18T22:54:49.541Z,100.00
2022-08-18T22:57:19.538Z,100.00
2022-08-18T22:59:51.531Z,100.00
2022-08-18T23:02:21.956Z,100.00
2022-08-18T23:04:49.797Z,100.00
2022-08-18T23:07:18.280Z,100.00
2022-08-18T23:09:45.425Z,100.00
2022-08-18T23:12:13.391Z,100.00
2022-08-18T23:14:41.407Z,100.00
2022-08-18T23:17:08.461Z,100.00
2022-08-18T23:19:35.830Z,100.00
2022-08-18T23:22:04.607Z,100.00
2022-08-18T23:24:33.733Z,100.00
2022-08-18T23:27:01.288Z,100.00
2022-08-18T23:29:29.463Z,100.00
2022-08-18T23:31:57.165Z,100.00
2022-08-18T23:34:25.441Z,100.00
2022-08-18T23:36:55.991Z,100.00
2022-08-18T23:39:23.984Z,100.00
2022-08-18T23:41:54.047Z,100.00
2022-08-18T23:44:27.453Z,100.00
2022-08-18T23:46:55.566Z,100.00
2022-08-18T23:49:23.051Z,100.00
2022-08-18T23:51:52.152Z,100.00
2022-08-18T23:54:21.563Z,100.00
2022-08-18T23:56:49.779Z,100.00
2022-08-18T23:59:20.798Z,100.00
